Time;durP1;ratioP1;P1;durP2;ratioP2;P2;SDS_P1;SDS_P2;PMS_P1;PMS_P2;Temp;Humidity;BMP_temperature;BMP_pressure;BME280_temperature;BME280_humidity;BME280_pressure;Samples;Min_cycle;Max_cycle;Signal;HPM_P1;HPM_P2
2024/01/17 00:00:56;;;;;;;15.98;10.10;;;;;;;;;;5024652;28;20171;-79
2024/01/17 00:03:22;;;;;;;23.80;10.23;;;;;;;;;;5023954;28;20186;-80
2024/01/17 00:05:48;;;;;;;16.87;9.73;;;;;;;;;;5024185;28;20639;-79
2024/01/17 00:08:14;;;;;;;14.53;7.63;;;;;;;;;;5022272;28;20844;-82
2024/01/17 00:10:40;;;;;;;13.05;8.23;;;;;;;;;;5022304;28;20489;-82
2024/01/17 00:13:06;;;;;;;12.32;6.80;;;;;;;;;;5021931;28;20575;-88
2024/01/17 00:15:32;;;;;;;18.08;6.90;;;;;;;;;;5022523;28;20177;-82
2024/01/17 00:17:58;;;;;;;9.87;6.30;;;;;;;;;;5022154;28;20183;-82
2024/01/17 00:20:24;;;;;;;14.00;7.10;;;;;;;;;;5021865;28;20410;-82
2024/01/17 00:22:50;;;;;;;12.15;6.78;;;;;;;;;;5021247;28;20646;-84
2024/01/17 00:25:16;;;;;;;11.90;6.93;;;;;;;;;;5020856;28;20218;-82
2024/01/17 00:27:42;;;;;;;11.40;6.43;;;;;;;;;;5021254;28;20300;-82
2024/01/17 00:30:08;;;;;;;12.75;6.72;;;;;;;;;;5020725;28;20636;-83
2024/01/17 00:32:34;;;;;;;11.88;6.90;;;;;;;;;;5021763;28;20178;-82
2024/01/17 00:35:00;;;;;;;10.70;6.63;;;;;;;;;;5020629;28;20199;-82
2024/01/17 00:37:26;;;;;;;9.07;5.40;;;;;;;;;;5021792;28;20186;-83
2024/01/17 00:39:53;;;;;;;13.90;7.03;;;;;;;;;;5022286;28;20626;-82
2024/01/17 00:42:19;;;;;;;11.50;6.10;;;;;;;;;;5021251;28;20402;-82
2024/01/17 00:44:45;;;;;;;14.77;6.70;;;;;;;;;;5022021;28;20286;-82
2024/01/17 00:47:12;;;;;;;14.30;7.47;;;;;;;;;;5019848;28;20202;-82
2024/01/17 00:49:41;;;;;;;11.75;5.85;;;;;;;;;;5021828;28;20457;-82
2024/01/17 00:52:08;;;;;;;7.93;5.63;;;;;;;;;;5019571;28;20571;-83
2024/01/17 00:54:34;;;;;;;11.32;6.75;;;;;;;;;;5021917;28;20185;-83
2024/01/17 00:57:00;;;;;;;7.55;5.35;;;;;;;;;;5021348;28;20188;-82
2024/01/17 00:59:26;;;;;;;11.18;6.03;;;;;;;;;;5020860;28;20198;-83
2024/01/17 01:01:52;;;;;;;11.13;6.50;;;;;;;;;;5021982;28;20182;-82
2024/01/17 01:04:18;;;;;;;11.98;7.10;;;;;;;;;;5021348;28;20437;-83
2024/01/17 01:06:44;;;;;;;9.63;5.80;;;;;;;;;;5020696;28;20171;-82
2024/01/17 01:09:10;;;;;;;13.27;7.27;;;;;;;;;;5021028;28;20465;-84
2024/01/17 01:11:36;;;;;;;11.10;6.40;;;;;;;;;;5021309;28;20537;-82
2024/01/17 01:14:02;;;;;;;13.73;7.30;;;;;;;;;;5021274;28;20414;-82
2024/01/17 01:16:28;;;;;;;11.18;6.20;;;;;;;;;;5020551;28;20652;-82
2024/01/17 01:18:54;;;;;;;11.00;7.13;;;;;;;;;;5020904;28;20179;-82
2024/01/17 01:21:20;;;;;;;9.07;6.00;;;;;;;;;;5020683;28;20171;-82
2024/01/17 01:23:47;;;;;;;10.55;7.05;;;;;;;;;;5021471;28;20218;-82
2024/01/17 01:26:14;;;;;;;12.75;6.28;;;;;;;;;;5020765;28;20190;-82
2024/01/17 01:28:40;;;;;;;16.33;6.90;;;;;;;;;;5020890;28;20226;-82
2024/01/17 01:31:06;;;;;;;13.10;7.35;;;;;;;;;;5021753;28;20179;-82
2024/01/17 01:33:32;;;;;;;8.20;5.80;;;;;;;;;;5020123;28;20191;-82
2024/01/17 01:35:58;;;;;;;10.70;6.72;;;;;;;;;;5020661;28;20183;-82
2024/01/17 01:38:24;;;;;;;10.90;7.30;;;;;;;;;;5019677;28;20218;-82
2024/01/17 01:40:50;;;;;;;13.40;7.70;;;;;;;;;;5020139;28;20247;-82
2024/01/17 01:43:20;;;;;;;9.82;6.30;;;;;;;;;;5020296;28;20442;-82
2024/01/17 01:45:55;;;;;;;12.73;7.60;;;;;;;;;;5020088;28;20175;-82
2024/01/17 01:48:21;;;;;;;14.57;7.15;;;;;;;;;;5020179;28;20155;-82
2024/01/17 01:50:47;;;;;;;9.10;6.10;;;;;;;;;;5020524;28;20191;-82
2024/01/17 01:53:13;;;;;;;13.98;7.53;;;;;;;;;;5021467;28;20184;-84
2024/01/17 01:55:39;;;;;;;18.00;7.60;;;;;;;;;;5020924;28;20191;-82
2024/01/17 01:58:05;;;;;;;8.82;6.60;;;;;;;;;;5021384;28;20184;-82
2024/01/17 02:00:31;;;;;;;9.73;6.60;;;;;;;;;;5020888;28;20201;-82
2024/01/17 02:02:57;;;;;;;14.23;8.07;;;;;;;;;;5021143;28;20183;-82
2024/01/17 02:05:24;;;;;;;14.15;7.57;;;;;;;;;;5034668;28;20277;-82
2024/01/17 02:07:51;;;;;;;12.73;7.30;;;;;;;;;;5040228;28;20664;-82
2024/01/17 02:10:17;;;;;;;11.05;6.85;;;;;;;;;;5039603;28;20319;-83
2024/01/17 02:12:43;;;;;;;11.52;7.47;;;;;;;;;;5039929;28;20174;-82
2024/01/17 02:15:09;;;;;;;15.05;6.80;;;;;;;;;;5039010;28;20174;-82
2024/01/17 02:17:35;;;;;;;11.65;6.20;;;;;;;;;;5039755;28;20189;-82
2024/01/17 02:20:01;;;;;;;9.80;6.40;;;;;;;;;;5038530;28;20282;-82
2024/01/17 02:22:27;;;;;;;16.45;6.57;;;;;;;;;;5040393;28;20174;-82
2024/01/17 02:24:53;;;;;;;12.73;6.35;;;;;;;;;;5039948;28;20178;-83
2024/01/17 02:27:19;;;;;;;12.87;6.57;;;;;;;;;;5039301;28;20261;-83
2024/01/17 02:29:47;;;;;;;13.93;6.60;;;;;;;;;;5038488;28;20465;-82
2024/01/17 02:32:14;;;;;;;11.20;5.97;;;;;;;;;;5039737;28;20644;-82
2024/01/17 02:34:39;;;;;;;12.40;6.90;;;;;;;;;;5040330;28;20180;-82
2024/01/17 02:37:10;;;;;;;14.65;7.90;;;;;;;;;;5039686;28;20178;-82
2024/01/17 02:39:36;;;;;;;10.73;7.32;;;;;;;;;;5020477;28;20213;-82
2024/01/17 02:42:01;;;;;;;12.07;6.70;;;;;;;;;;5019807;28;20187;-81
2024/01/17 02:44:27;;;;;;;12.33;8.43;;;;;;;;;;5019609;28;20406;-82
2024/01/17 02:46:53;;;;;;;11.32;6.53;;;;;;;;;;5020247;28;20407;-82
2024/01/17 02:49:21;;;;;;;10.35;6.57;;;;;;;;;;5021890;28;20550;-83
2024/01/17 02:51:47;;;;;;;13.10;6.85;;;;;;;;;;5023918;28;20666;-82
2024/01/17 02:54:12;;;;;;;14.88;7.50;;;;;;;;;;5024384;28;20229;-82
2024/01/17 02:56:39;;;;;;;9.80;6.40;;;;;;;;;;5024163;28;20263;-82
2024/01/17 02:59:06;;;;;;;14.68;7.60;;;;;;;;;;5023812;28;20183;-82
2024/01/17 03:01:33;;;;;;;11.98;6.65;;;;;;;;;;5023633;28;20176;-82
2024/01/17 03:03:59;;;;;;;11.82;7.82;;;;;;;;;;5023521;28;20259;-82
2024/01/17 03:06:25;;;;;;;12.90;7.00;;;;;;;;;;5023627;28;20167;-82
2024/01/17 03:08:51;;;;;;;11.83;7.33;;;;;;;;;;5023117;28;20203;-82
2024/01/17 03:11:17;;;;;;;10.20;6.95;;;;;;;;;;5023281;28;20553;-87
2024/01/17 03:13:43;;;;;;;10.97;7.40;;;;;;;;;;5023303;28;20540;-83
2024/01/17 03:16:09;;;;;;;12.07;6.55;;;;;;;;;;5023163;28;20413;-82
2024/01/17 03:18:37;;;;;;;13.02;7.90;;;;;;;;;;5014341;28;20194;-82
2024/01/17 03:21:06;;;;;;;11.38;6.47;;;;;;;;;;5003109;28;20250;-82
2024/01/17 03:23:32;;;;;;;14.68;7.43;;;;;;;;;;5003017;28;20266;-82
2024/01/17 03:25:58;;;;;;;13.35;7.25;;;;;;;;;;5003473;28;20244;-82
2024/01/17 03:28:25;;;;;;;15.00;7.85;;;;;;;;;;5003870;28;20212;-83
2024/01/17 03:30:51;;;;;;;12.25;7.70;;;;;;;;;;5004282;28;20522;-82
2024/01/17 03:33:17;;;;;;;12.52;7.25;;;;;;;;;;5003752;28;20185;-82
2024/01/17 03:35:43;;;;;;;14.63;7.07;;;;;;;;;;5002713;28;20179;-82
2024/01/17 03:38:09;;;;;;;11.45;7.55;;;;;;;;;;5003727;28;20440;-82
2024/01/17 03:40:35;;;;;;;23.77;7.22;;;;;;;;;;5003776;28;20180;-82
2024/01/17 03:43:01;;;;;;;15.27;6.55;;;;;;;;;;5003134;28;20544;-82
2024/01/17 03:45:27;;;;;;;13.55;7.78;;;;;;;;;;5003322;28;20180;-82
2024/01/17 03:47:53;;;;;;;12.38;7.30;;;;;;;;;;5003723;28;20179;-82
2024/01/17 03:50:19;;;;;;;15.00;7.53;;;;;;;;;;5018510;28;20293;-87
2024/01/17 03:52:45;;;;;;;14.52;8.02;;;;;;;;;;5005546;28;20445;-82
2024/01/17 03:55:11;;;;;;;14.10;7.47;;;;;;;;;;5002242;28;20549;-82
2024/01/17 03:57:37;;;;;;;14.30;8.23;;;;;;;;;;5003679;28;20442;-83
2024/01/17 04:00:04;;;;;;;17.37;7.23;;;;;;;;;;5002131;28;20416;-83
2024/01/17 04:02:30;;;;;;;12.60;7.75;;;;;;;;;;5003308;28;20447;-82
2024/01/17 04:04:57;;;;;;;16.13;7.97;;;;;;;;;;5003683;28;20188;-82
2024/01/17 04:07:23;;;;;;;14.00;8.73;;;;;;;;;;5001637;28;20225;-83
2024/01/17 04:09:50;;;;;;;17.35;8.05;;;;;;;;;;5003025;28;20273;-82
2024/01/17 04:12:16;;;;;;;12.02;7.38;;;;;;;;;;5002875;28;20180;-83
2024/01/17 04:14:42;;;;;;;11.63;7.93;;;;;;;;;;5002325;28;20272;-82
2024/01/17 04:17:10;;;;;;;19.98;9.10;;;;;;;;;;5002445;28;20572;-82
2024/01/17 04:19:36;;;;;;;13.20;8.35;;;;;;;;;;5008101;28;20237;-82
2024/01/17 04:22:03;;;;;;;15.53;8.67;;;;;;;;;;5017538;28;20192;-82
2024/01/17 04:24:29;;;;;;;13.57;7.97;;;;;;;;;;5007585;28;20418;-83
2024/01/17 04:26:56;;;;;;;14.60;8.80;;;;;;;;;;5002914;28;20212;-82
2024/01/17 04:29:23;;;;;;;13.23;8.00;;;;;;;;;;5016378;28;20206;-87
2024/01/17 04:31:49;;;;;;;16.63;9.32;;;;;;;;;;5020708;28;20233;-82
2024/01/17 04:34:15;;;;;;;12.63;8.20;;;;;;;;;;5021461;28;20190;-82
2024/01/17 04:36:41;;;;;;;12.95;8.20;;;;;;;;;;5021941;28;20399;-82
2024/01/17 04:39:08;;;;;;;15.40;8.65;;;;;;;;;;5022568;28;20215;-83
2024/01/17 04:41:34;;;;;;;16.33;8.80;;;;;;;;;;5022254;28;20530;-82
2024/01/17 04:44:00;;;;;;;11.45;7.50;;;;;;;;;;5021403;28;20270;-82
2024/01/17 04:46:27;;;;;;;15.02;8.68;;;;;;;;;;5020493;28;20223;-83
2024/01/17 04:48:53;;;;;;;16.75;8.13;;;;;;;;;;5021882;28;20208;-82
2024/01/17 04:51:22;;;;;;;13.55;9.07;;;;;;;;;;5021826;28;20209;-82
2024/01/17 04:53:49;;;;;;;21.77;9.60;;;;;;;;;;5021552;28;20184;-82
2024/01/17 04:56:15;;;;;;;14.55;8.75;;;;;;;;;;5021629;28;20202;-82
2024/01/17 04:58:43;;;;;;;16.05;9.20;;;;;;;;;;5020022;28;20180;-82
2024/01/17 05:01:09;;;;;;;14.48;8.05;;;;;;;;;;5021301;28;20175;-82
2024/01/17 05:03:36;;;;;;;17.98;8.23;;;;;;;;;;5027874;28;20175;-83
2024/01/17 05:06:02;;;;;;;14.15;8.77;;;;;;;;;;5021140;28;20592;-82
2024/01/17 05:08:28;;;;;;;13.57;8.38;;;;;;;;;;5021507;28;20574;-82
2024/01/17 05:10:54;;;;;;;12.30;7.95;;;;;;;;;;5020071;28;20238;-82
2024/01/17 05:13:20;;;;;;;17.10;8.57;;;;;;;;;;5016303;28;20591;-81
2024/01/17 05:15:47;;;;;;;16.70;9.82;;;;;;;;;;5001678;28;20263;-81
2024/01/17 05:18:13;;;;;;;15.82;10.10;;;;;;;;;;5001655;28;20184;-81
2024/01/17 05:20:39;;;;;;;16.20;9.07;;;;;;;;;;5012457;28;20187;-82
2024/01/17 05:23:05;;;;;;;17.73;9.23;;;;;;;;;;5021418;28;20257;-81
2024/01/17 05:25:31;;;;;;;15.57;8.70;;;;;;;;;;5021360;28;20593;-82
2024/01/17 05:27:57;;;;;;;14.35;8.77;;;;;;;;;;5021085;28;20670;-81
2024/01/17 05:30:26;;;;;;;19.92;8.98;;;;;;;;;;5021595;28;20260;-81
2024/01/17 05:32:52;;;;;;;16.05;10.20;;;;;;;;;;5021869;28;20198;-81
2024/01/17 05:35:20;;;;;;;15.25;9.93;;;;;;;;;;5021819;28;20194;-81
2024/01/17 05:37:46;;;;;;;14.05;8.25;;;;;;;;;;5020635;28;20185;-82
2024/01/17 05:40:13;;;;;;;16.23;8.33;;;;;;;;;;5021169;28;20178;-81
2024/01/17 05:42:40;;;;;;;11.98;8.35;;;;;;;;;;5021154;28;20435;-82
2024/01/17 05:45:07;;;;;;;17.23;9.52;;;;;;;;;;5020916;28;20574;-81
2024/01/17 05:47:35;;;;;;;18.95;7.85;;;;;;;;;;5020541;28;20176;-82
2024/01/17 05:50:01;;;;;;;17.73;9.13;;;;;;;;;;5021165;28;20293;-82
2024/01/17 05:52:27;;;;;;;20.30;10.13;;;;;;;;;;5021193;28;20218;-86
2024/01/17 05:54:53;;;;;;;15.83;8.00;;;;;;;;;;5021031;28;20555;-82
2024/01/17 05:57:19;;;;;;;15.63;9.40;;;;;;;;;;5021150;28;20420;-81
2024/01/17 05:59:45;;;;;;;15.68;8.48;;;;;;;;;;5019698;28;20231;-82
2024/01/17 06:02:11;;;;;;;13.15;8.25;;;;;;;;;;5021527;28;20258;-81
2024/01/17 06:04:36;;;;;;;16.05;9.45;;;;;;;;;;5020590;28;20232;-82
2024/01/17 06:07:02;;;;;;;17.48;9.55;;;;;;;;;;5019839;28;20206;-82
2024/01/17 06:09:28;;;;;;;15.40;8.98;;;;;;;;;;5020900;28;20572;-83
2024/01/17 06:11:55;;;;;;;19.27;9.48;;;;;;;;;;5021857;28;20179;-81
2024/01/17 06:14:21;;;;;;;15.25;8.95;;;;;;;;;;5021024;28;20201;-81
2024/01/17 06:16:47;;;;;;;17.40;9.13;;;;;;;;;;5020989;28;20186;-82
2024/01/17 06:19:15;;;;;;;17.35;8.80;;;;;;;;;;5020840;28;20188;-82
2024/01/17 06:21:41;;;;;;;14.45;9.75;;;;;;;;;;5021239;28;20173;-82
2024/01/17 06:24:07;;;;;;;20.30;10.10;;;;;;;;;;5022657;28;20184;-82
2024/01/17 06:26:33;;;;;;;21.23;9.48;;;;;;;;;;5023663;28;20184;-82
2024/01/17 06:28:59;;;;;;;17.35;9.50;;;;;;;;;;5025182;28;20215;-82
2024/01/17 06:31:25;;;;;;;16.92;8.75;;;;;;;;;;5025298;28;20197;-81
2024/01/17 06:33:52;;;;;;;15.90;8.88;;;;;;;;;;5025091;28;20177;-82
2024/01/17 06:36:18;;;;;;;16.02;7.93;;;;;;;;;;5025239;28;20211;-82
2024/01/17 06:38:44;;;;;;;14.70;9.20;;;;;;;;;;5023574;28;20186;-82
2024/01/17 06:41:10;;;;;;;13.23;9.70;;;;;;;;;;5025748;28;20518;-82
2024/01/17 06:43:36;;;;;;;20.40;9.30;;;;;;;;;;5024726;28;20286;-83
2024/01/17 06:46:02;;;;;;;10.70;7.65;;;;;;;;;;5023685;28;20263;-82
2024/01/17 06:48:28;;;;;;;14.23;9.35;;;;;;;;;;5024813;28;20189;-81
2024/01/17 06:50:54;;;;;;;16.60;8.88;;;;;;;;;;5023529;28;20197;-82
2024/01/17 06:53:21;;;;;;;13.60;8.60;;;;;;;;;;5025350;28;20187;-82
2024/01/17 06:55:47;;;;;;;17.33;8.95;;;;;;;;;;5025166;28;20423;-82
2024/01/17 06:58:13;;;;;;;12.57;7.07;;;;;;;;;;5023617;28;20246;-82
2024/01/17 07:00:41;;;;;;;13.02;9.02;;;;;;;;;;5024711;28;20543;-83
2024/01/17 07:03:07;;;;;;;14.98;8.75;;;;;;;;;;5023978;28;20261;-82
2024/01/17 07:05:33;;;;;;;14.90;8.48;;;;;;;;;;5024383;28;20245;-82
2024/01/17 07:07:59;;;;;;;14.85;8.00;;;;;;;;;;5023840;28;20181;-82
2024/01/17 07:10:25;;;;;;;14.32;8.52;;;;;;;;;;5022945;28;20240;-82
2024/01/17 07:12:51;;;;;;;13.43;9.20;;;;;;;;;;5024199;28;20192;-82
2024/01/17 07:15:18;;;;;;;11.93;7.53;;;;;;;;;;5024709;28;20420;-82
2024/01/17 07:17:44;;;;;;;13.98;6.85;;;;;;;;;;5024907;28;20630;-81
2024/01/17 07:20:10;;;;;;;18.15;8.88;;;;;;;;;;5024091;28;20174;-82
2024/01/17 07:22:42;;;;;;;14.98;8.85;;;;;;;;;;5024499;28;20177;-82
2024/01/17 07:25:10;;;;;;;13.95;8.80;;;;;;;;;;5022858;28;20260;-82
2024/01/17 07:27:36;;;;;;;16.25;8.88;;;;;;;;;;5022561;28;20193;-82
2024/01/17 07:30:02;;;;;;;25.48;9.30;;;;;;;;;;5023746;28;20209;-82
2024/01/17 07:32:29;;;;;;;21.30;8.63;;;;;;;;;;5023101;28;20617;-81
2024/01/17 07:34:55;;;;;;;14.30;8.15;;;;;;;;;;5021868;28;20673;-82
2024/01/17 07:37:21;;;;;;;14.20;8.77;;;;;;;;;;5024562;28;20176;-82
2024/01/17 07:39:47;;;;;;;18.50;8.47;;;;;;;;;;5024023;28;20416;-82
2024/01/17 07:42:12;;;;;;;13.87;8.60;;;;;;;;;;5023788;28;20425;-82
2024/01/17 07:44:38;;;;;;;16.92;11.27;;;;;;;;;;5024374;28;20416;-82
2024/01/17 07:47:05;;;;;;;13.45;8.05;;;;;;;;;;5024895;28;20205;-82
2024/01/17 07:49:31;;;;;;;14.73;8.63;;;;;;;;;;5023810;28;20215;-82
2024/01/17 07:51:56;;;;;;;13.65;8.98;;;;;;;;;;5023763;28;20194;-82
2024/01/17 07:54:23;;;;;;;12.90;7.88;;;;;;;;;;5026924;28;20226;-81
2024/01/17 07:56:49;;;;;;;14.68;8.02;;;;;;;;;;5043146;28;20222;-82
2024/01/17 07:59:16;;;;;;;13.32;8.30;;;;;;;;;;5044177;28;20180;-82
2024/01/17 08:01:42;;;;;;;16.58;8.25;;;;;;;;;;5043470;28;20196;-82
2024/01/17 08:04:08;;;;;;;17.77;9.40;;;;;;;;;;5043692;28;20174;-82
2024/01/17 08:06:34;;;;;;;15.45;8.93;;;;;;;;;;5043154;28;20185;-88
2024/01/17 08:09:02;;;;;;;21.15;8.75;;;;;;;;;;5043419;28;20206;-82
2024/01/17 08:11:28;;;;;;;17.50;9.65;;;;;;;;;;5032719;28;20255;-81
2024/01/17 08:13:54;;;;;;;19.88;9.60;;;;;;;;;;5024166;28;20178;-81
2024/01/17 08:16:21;;;;;;;18.53;9.37;;;;;;;;;;5024148;28;20270;-81
2024/01/17 08:18:48;;;;;;;15.65;8.48;;;;;;;;;;5021978;28;20421;-81
2024/01/17 08:21:14;;;;;;;18.58;9.65;;;;;;;;;;5024485;28;20199;-81
2024/01/17 08:23:40;;;;;;;16.52;8.63;;;;;;;;;;5022839;28;20533;-82
2024/01/17 08:26:07;;;;;;;14.13;9.25;;;;;;;;;;5023085;28;20205;-81
2024/01/17 08:28:33;;;;;;;15.25;7.88;;;;;;;;;;5022787;28;20208;-81
2024/01/17 08:30:59;;;;;;;13.80;8.05;;;;;;;;;;5023710;28;20174;-81
2024/01/17 08:33:25;;;;;;;15.30;9.32;;;;;;;;;;5024260;28;20182;-81
2024/01/17 08:35:51;;;;;;;13.37;8.00;;;;;;;;;;5023414;28;20182;-81
2024/01/17 08:38:17;;;;;;;13.00;7.97;;;;;;;;;;5023274;28;20424;-81
2024/01/17 08:40:43;;;;;;;12.73;7.60;;;;;;;;;;5023794;28;20433;-81
2024/01/17 08:43:09;;;;;;;14.57;6.73;;;;;;;;;;5022973;28;20250;-81
2024/01/17 08:45:35;;;;;;;14.27;7.10;;;;;;;;;;5020762;28;20475;-89
2024/01/17 08:48:01;;;;;;;12.70;7.57;;;;;;;;;;5019028;28;20496;-89
2024/01/17 08:50:27;;;;;;;13.00;8.13;;;;;;;;;;5018735;28;20472;-89
2024/01/17 08:52:53;;;;;;;15.32;8.60;;;;;;;;;;5018348;28;20442;-82
2024/01/17 08:55:19;;;;;;;17.13;8.90;;;;;;;;;;5022989;28;20542;-81
2024/01/17 08:57:45;;;;;;;12.50;7.60;;;;;;;;;;5040561;28;20268;-81
2024/01/17 09:00:14;;;;;;;16.23;8.70;;;;;;;;;;5040618;28;20418;-81
2024/01/17 09:02:39;;;;;;;10.80;7.13;;;;;;;;;;5040364;28;20413;-81
2024/01/17 09:05:06;;;;;;;12.87;8.23;;;;;;;;;;5041492;28;20196;-80
2024/01/17 09:07:32;;;;;;;11.43;7.35;;;;;;;;;;5020158;28;20421;-82
2024/01/17 09:09:58;;;;;;;14.57;6.93;;;;;;;;;;5020361;28;20684;-82
2024/01/17 09:12:24;;;;;;;12.63;7.32;;;;;;;;;;5020170;28;20258;-82
2024/01/17 09:14:50;;;;;;;13.57;7.75;;;;;;;;;;5020262;28;20595;-82
2024/01/17 09:17:16;;;;;;;13.05;7.88;;;;;;;;;;5020980;28;20188;-82
2024/01/17 09:19:43;;;;;;;12.40;7.68;;;;;;;;;;5021609;28;20544;-83
2024/01/17 09:22:09;;;;;;;12.57;6.95;;;;;;;;;;5020670;28;20206;-81
2024/01/17 09:24:36;;;;;;;20.33;9.00;;;;;;;;;;5021035;28;20182;-81
2024/01/17 09:27:02;;;;;;;16.42;8.80;;;;;;;;;;5020826;28;20420;-81
2024/01/17 09:29:33;;;;;;;16.73;8.68;;;;;;;;;;5020777;28;20206;-81
2024/01/17 09:31:59;;;;;;;19.55;8.57;;;;;;;;;;5020991;28;20183;-82
2024/01/17 09:34:25;;;;;;;11.48;7.18;;;;;;;;;;5020438;28;20186;-81
2024/01/17 09:36:52;;;;;;;12.30;7.80;;;;;;;;;;5021941;28;20175;-82
2024/01/17 09:39:18;;;;;;;19.58;8.02;;;;;;;;;;5020964;28;20422;-82
2024/01/17 09:41:44;;;;;;;15.55;8.80;;;;;;;;;;5019780;28;20641;-83
2024/01/17 09:44:11;;;;;;;17.50;9.98;;;;;;;;;;5020672;28;20179;-82
2024/01/17 09:46:38;;;;;;;15.57;8.80;;;;;;;;;;5020256;28;20190;-81
2024/01/17 09:49:04;;;;;;;17.50;9.20;;;;;;;;;;5019853;28;20222;-82
2024/01/17 09:51:32;;;;;;;15.77;8.95;;;;;;;;;;5020598;28;20175;-81
2024/01/17 09:54:00;;;;;;;14.27;8.65;;;;;;;;;;5013836;28;20709;-82
2024/01/17 09:56:27;;;;;;;15.57;9.45;;;;;;;;;;5007570;28;20628;-82
2024/01/17 09:58:54;;;;;;;12.90;9.07;;;;;;;;;;5007993;28;20175;-81
2024/01/17 10:01:21;;;;;;;15.57;10.20;;;;;;;;;;5012502;28;20180;-81
2024/01/17 10:03:47;;;;;;;20.75;9.60;;;;;;;;;;5009829;28;20241;-81
2024/01/17 10:06:15;;;;;;;13.43;8.25;;;;;;;;;;5008170;28;20256;-81
2024/01/17 10:08:42;;;;;;;17.83;9.15;;;;;;;;;;5006179;28;20194;-81
2024/01/17 10:11:08;;;;;;;13.05;8.65;;;;;;;;;;5009042;28;20231;-81
2024/01/17 10:13:33;;;;;;;18.13;10.07;;;;;;;;;;5009014;28;20191;-81
2024/01/17 10:16:03;;;;;;;17.20;10.40;;;;;;;;;;5010601;28;20550;-82
2024/01/17 10:18:29;;;;;;;16.05;9.63;;;;;;;;;;5004649;28;20419;-81
2024/01/17 10:20:55;;;;;;;24.77;11.80;;;;;;;;;;5011251;28;20200;-83
2024/01/17 10:23:21;;;;;;;16.50;10.57;;;;;;;;;;5011414;28;20453;-81
2024/01/17 10:25:47;;;;;;;18.00;9.73;;;;;;;;;;5013371;28;20184;-82
2024/01/17 10:28:13;;;;;;;20.80;10.38;;;;;;;;;;5008750;28;20184;-81
2024/01/17 10:30:39;;;;;;;17.60;10.07;;;;;;;;;;5020190;28;20211;-85
2024/01/17 10:33:07;;;;;;;16.80;9.50;;;;;;;;;;5010682;28;20199;-82
2024/01/17 10:35:33;;;;;;;20.05;11.00;;;;;;;;;;5011420;28;20503;-81
2024/01/17 10:38:00;;;;;;;17.95;8.60;;;;;;;;;;5009474;28;20610;-82
2024/01/17 10:40:26;;;;;;;17.65;9.75;;;;;;;;;;5008377;28;20934;-82
2024/01/17 10:43:10;;;;;;;15.57;9.25;;;;;;;;;;5007742;28;20230;-82
2024/01/17 10:45:37;;;;;;;18.88;10.05;;;;;;;;;;5008454;28;20258;-81
2024/01/17 10:48:05;;;;;;;18.27;10.40;;;;;;;;;;5009067;28;20662;-80
2024/01/17 10:50:31;;;;;;;23.55;11.25;;;;;;;;;;5020156;28;20238;-79
2024/01/17 10:53:08;;;;;;;23.42;10.70;;;;;;;;;;5019360;28;20729;-82
2024/01/17 10:55:38;;;;;;;16.63;8.95;;;;;;;;;;5019580;28;20536;-82
2024/01/17 10:58:09;;;;;;;14.30;8.73;;;;;;;;;;5012427;28;20215;-81
2024/01/17 11:00:37;;;;;;;13.60;9.32;;;;;;;;;;5006138;28;20206;-81
2024/01/17 11:03:08;;;;;;;12.60;8.55;;;;;;;;;;5008953;28;20187;-82
2024/01/17 11:05:38;;;;;;;16.15;8.70;;;;;;;;;;5008667;28;20518;-81
2024/01/17 11:08:05;;;;;;;15.55;9.93;;;;;;;;;;5007374;28;20176;-82
2024/01/17 11:10:31;;;;;;;14.18;9.95;;;;;;;;;;5011038;28;20268;-82
2024/01/17 11:12:57;;;;;;;13.52;8.85;;;;;;;;;;5030550;28;20180;-83
2024/01/17 11:15:26;;;;;;;15.00;9.93;;;;;;;;;;5022236;28;20180;-83
2024/01/17 11:17:54;;;;;;;18.48;9.75;;;;;;;;;;5021754;28;20168;-82
2024/01/17 11:20:20;;;;;;;17.63;11.05;;;;;;;;;;5031899;28;20246;-81
2024/01/17 11:22:49;;;;;;;16.92;10.48;;;;;;;;;;5028808;28;20191;-86
2024/01/17 11:25:22;;;;;;;18.95;9.88;;;;;;;;;;5023258;28;20608;-81
2024/01/17 11:28:07;;;;;;;23.52;10.30;;;;;;;;;;5023026;28;20172;-82
2024/01/17 11:30:42;;;;;;;16.60;11.60;;;;;;;;;;5022684;28;20211;-82
2024/01/17 11:33:10;;;;;;;14.90;10.90;;;;;;;;;;5022564;28;20176;-82
2024/01/17 11:35:43;;;;;;;21.30;11.30;;;;;;;;;;5020669;28;20175;-82
2024/01/17 11:38:13;;;;;;;18.42;10.60;;;;;;;;;;5022238;28;20179;-82
2024/01/17 11:40:40;;;;;;;14.73;9.95;;;;;;;;;;5022709;28;20175;-82
2024/01/17 11:43:07;;;;;;;15.77;10.45;;;;;;;;;;5021785;28;20506;-82
2024/01/17 11:45:33;;;;;;;21.48;11.80;;;;;;;;;;5022740;28;20167;-82
2024/01/17 11:48:11;;;;;;;19.75;12.18;;;;;;;;;;5021789;28;20179;-82
2024/01/17 11:50:38;;;;;;;16.10;9.85;;;;;;;;;;5021647;28;20626;-82
2024/01/17 11:53:04;;;;;;;17.17;11.45;;;;;;;;;;5021276;28;20187;-82
2024/01/17 11:55:33;;;;;;;19.67;11.70;;;;;;;;;;5022096;28;20197;-82
2024/01/17 11:58:00;;;;;;;23.05;14.38;;;;;;;;;;5021448;28;20440;-82
2024/01/17 12:00:28;;;;;;;24.05;13.38;;;;;;;;;;5021916;28;20178;-82
2024/01/17 12:02:59;;;;;;;27.45;13.35;;;;;;;;;;5020243;28;20171;-82
2024/01/17 12:05:26;;;;;;;22.63;12.15;;;;;;;;;;5001680;28;20187;-82
2024/01/17 12:07:53;;;;;;;18.85;12.15;;;;;;;;;;5001904;28;20183;-83
2024/01/17 12:10:19;;;;;;;22.50;12.77;;;;;;;;;;5001450;28;20230;-82
2024/01/17 12:12:46;;;;;;;18.50;12.20;;;;;;;;;;5000951;28;20230;-82
2024/01/17 12:15:13;;;;;;;26.50;14.00;;;;;;;;;;5018761;28;20418;-82
2024/01/17 12:17:40;;;;;;;19.13;12.98;;;;;;;;;;5021074;28;20175;-82
2024/01/17 12:20:07;;;;;;;20.77;12.55;;;;;;;;;;5020727;28;20722;-82
2024/01/17 12:22:33;;;;;;;19.70;12.88;;;;;;;;;;5020357;28;20263;-82
2024/01/17 12:24:59;;;;;;;20.40;13.15;;;;;;;;;;5020478;28;20182;-82
2024/01/17 12:27:32;;;;;;;22.73;12.95;;;;;;;;;;5020798;28;20179;-81
2024/01/17 12:30:05;;;;;;;18.58;12.60;;;;;;;;;;5020939;28;20201;-82
2024/01/17 12:32:31;;;;;;;21.48;13.63;;;;;;;;;;5021245;28;20242;-82
2024/01/17 12:34:57;;;;;;;23.55;14.70;;;;;;;;;;5020463;28;20262;-83
2024/01/17 12:37:23;;;;;;;40.95;24.80;;;;;;;;;;5018852;28;20537;-82
2024/01/17 12:39:49;;;;;;;23.38;16.98;;;;;;;;;;5001434;28;20246;-82
2024/01/17 12:42:16;;;;;;;25.93;16.50;;;;;;;;;;5001377;28;20180;-82
2024/01/17 12:44:42;;;;;;;29.20;15.20;;;;;;;;;;5001205;28;20399;-83
2024/01/17 12:47:08;;;;;;;25.63;14.65;;;;;;;;;;4999736;28;20199;-82
2024/01/17 12:49:34;;;;;;;23.00;14.68;;;;;;;;;;5000327;28;20207;-83
2024/01/17 12:52:00;;;;;;;27.73;16.20;;;;;;;;;;5000269;28;20207;-83
2024/01/17 12:54:26;;;;;;;24.38;13.20;;;;;;;;;;4999957;28;20234;-83
2024/01/17 12:56:54;;;;;;;24.40;15.20;;;;;;;;;;4999279;28;20180;-84
2024/01/17 12:59:21;;;;;;;24.23;15.02;;;;;;;;;;5000663;28;20419;-82
2024/01/17 13:01:47;;;;;;;27.10;15.65;;;;;;;;;;5000548;28;20175;-82
2024/01/17 13:04:13;;;;;;;21.10;13.57;;;;;;;;;;5004930;28;20190;-82
2024/01/17 13:06:46;;;;;;;23.17;14.45;;;;;;;;;;5020508;28;20200;-82
2024/01/17 13:09:17;;;;;;;24.65;15.98;;;;;;;;;;5020950;28;20218;-82
2024/01/17 13:11:49;;;;;;;21.70;15.35;;;;;;;;;;5039076;28;20241;-82
2024/01/17 13:14:16;;;;;;;26.70;16.40;;;;;;;;;;5040199;28;20635;-82
2024/01/17 13:16:42;;;;;;;23.30;14.25;;;;;;;;;;5040247;28;20177;-82
2024/01/17 13:19:10;;;;;;;25.45;15.10;;;;;;;;;;5039249;28;20235;-83
2024/01/17 13:21:37;;;;;;;24.45;15.07;;;;;;;;;;5031799;28;20183;-83
2024/01/17 13:24:04;;;;;;;21.35;15.32;;;;;;;;;;5016359;28;20189;-82
2024/01/17 13:26:30;;;;;;;24.42;15.05;;;;;;;;;;5020907;28;20175;-82
2024/01/17 13:28:56;;;;;;;25.10;15.75;;;;;;;;;;5019379;28;20179;-82
2024/01/17 13:31:23;;;;;;;26.88;16.38;;;;;;;;;;5019840;28;20183;-82
2024/01/17 13:33:51;;;;;;;23.60;14.70;;;;;;;;;;5018773;28;20211;-82
2024/01/17 13:36:17;;;;;;;26.30;15.82;;;;;;;;;;5018157;28;20188;-80
2024/01/17 13:38:43;;;;;;;17.80;14.02;;;;;;;;;;5020284;28;20183;-80
2024/01/17 13:41:09;;;;;;;22.77;14.45;;;;;;;;;;5019531;28;20190;-80
2024/01/17 13:43:35;;;;;;;30.03;16.17;;;;;;;;;;5019391;28;20179;-80
2024/01/17 13:46:01;;;;;;;20.83;14.00;;;;;;;;;;5019693;28;20421;-81
2024/01/17 13:48:27;;;;;;;34.15;17.40;;;;;;;;;;5019753;28;20170;-81
2024/01/17 13:50:54;;;;;;;20.53;14.00;;;;;;;;;;5019336;28;20213;-80
2024/01/17 13:53:32;;;;;;;24.90;15.32;;;;;;;;;;5019749;28;20464;-81
2024/01/17 13:55:58;;;;;;;23.70;15.13;;;;;;;;;;5019262;28;20167;-81
2024/01/17 13:58:24;;;;;;;20.05;14.70;;;;;;;;;;5019427;28;20623;-81
2024/01/17 14:00:59;;;;;;;22.00;13.05;;;;;;;;;;5019353;28;20548;-81
2024/01/17 14:03:25;;;;;;;21.67;14.50;;;;;;;;;;5019568;28;20170;-81
2024/01/17 14:05:51;;;;;;;23.55;14.57;;;;;;;;;;5018027;28;20519;-81
2024/01/17 14:08:17;;;;;;;21.52;13.85;;;;;;;;;;5019794;28;20209;-81
2024/01/17 14:10:44;;;;;;;24.67;16.07;;;;;;;;;;5019612;28;20589;-81
2024/01/17 14:13:13;;;;;;;22.85;16.58;;;;;;;;;;5018360;28;20403;-81
2024/01/17 14:15:39;;;;;;;22.90;15.45;;;;;;;;;;5018584;28;20178;-82
2024/01/17 14:18:05;;;;;;;20.10;13.88;;;;;;;;;;5019864;28;20174;-82
2024/01/17 14:20:31;;;;;;;22.80;14.70;;;;;;;;;;5017968;28;20271;-82
2024/01/17 14:22:57;;;;;;;25.35;13.93;;;;;;;;;;5013405;28;20191;-82